createdAt,value
2022-10-05T00:01:45.136Z,8.90
2022-10-05T00:04:47.909Z,8.67
2022-10-05T00:07:49.574Z,9.00
2022-10-05T00:10:51.562Z,9.57
2022-10-05T00:13:53.157Z,10.00
2022-10-05T00:16:56.049Z,9.38
2022-10-05T00:20:02.008Z,9.03
2022-10-05T00:23:04.551Z,8.80
2022-10-05T00:26:19.207Z,10.02
2022-10-05T00:29:22.408Z,9.95
2022-10-05T00:32:23.956Z,9.02
2022-10-05T00:35:25.555Z,9.40
2022-10-05T00:38:28.222Z,9.33
2022-10-05T00:41:51.446Z,8.68
2022-10-05T00:45:09.506Z,9.45
2022-10-05T00:48:26.073Z,10.20
2022-10-05T00:51:29.048Z,9.73
2022-10-05T00:54:45.664Z,10.20
2022-10-05T00:58:32.705Z,10.48
2022-10-05T01:01:46.861Z,9.82
2022-10-05T01:04:52.933Z,9.60
2022-10-05T01:08:25.257Z,9.83
2022-10-05T01:11:42.057Z,9.93
2022-10-05T01:14:55.717Z,10.30
2022-10-05T01:18:08.812Z,9.68
2022-10-05T01:21:21.470Z,10.02
2022-10-05T01:24:37.088Z,10.03
2022-10-05T01:27:53.900Z,9.55
2022-10-05T01:31:09.981Z,9.55
2022-10-05T01:34:48.868Z,9.63
2022-10-05T01:37:59.116Z,9.95
2022-10-05T01:41:12.806Z,9.83
2022-10-05T01:44:16.626Z,9.25
2022-10-05T01:47:37.012Z,9.93
2022-10-05T01:51:01.177Z,9.20
2022-10-05T01:54:27.413Z,9.60
2022-10-05T01:58:02.751Z,9.13
2022-10-05T02:01:11.868Z,8.80
2022-10-05T02:04:37.030Z,8.65
2022-10-05T02:07:41.365Z,9.23
2022-10-05T02:10:46.585Z,9.60
2022-10-05T02:13:55.749Z,8.63
2022-10-05T02:16:57.915Z,8.88
2022-10-05T02:20:05.578Z,9.15
2022-10-05T02:23:33.808Z,8.70
2022-10-05T02:26:35.834Z,8.40
2022-10-05T02:29:39.806Z,8.75
2022-10-05T02:32:44.711Z,8.63
2022-10-05T02:35:46.737Z,8.32
2022-10-05T02:39:08.352Z,8.90
2022-10-05T02:42:19.753Z,8.67
2022-10-05T02:45:59.079Z,8.35
2022-10-05T02:49:28.458Z,7.82
2022-10-05T02:52:37.646Z,7.70
2022-10-05T02:56:14.598Z,7.90
2022-10-05T02:59:19.193Z,8.37
2022-10-05T03:02:20.765Z,8.93
2022-10-05T03:05:30.847Z,8.35
2022-10-05T03:08:47.241Z,9.32
2022-10-05T03:11:51.651Z,8.15
2022-10-05T03:14:56.409Z,8.63
2022-10-05T03:18:20.259Z,8.48
2022-10-05T03:21:44.465Z,9.27
2022-10-05T03:25:23.600Z,9.65
2022-10-05T03:28:40.654Z,9.30
2022-10-05T03:31:46.669Z,9.47
2022-10-05T03:34:52.632Z,9.50
2022-10-05T03:38:37.224Z,10.65
2022-10-05T03:41:55.494Z,9.02
2022-10-05T03:45:09.572Z,9.67
2022-10-05T03:48:14.232Z,9.20
2022-10-05T03:51:21.438Z,9.68
2022-10-05T03:54:24.998Z,8.82
2022-10-05T03:57:28.496Z,9.75
2022-10-05T04:00:30.384Z,10.30
2022-10-05T04:03:36.522Z,8.83
2022-10-05T04:06:45.570Z,9.02
2022-10-05T04:09:47.311Z,9.20
2022-10-05T04:13:22.716Z,9.30
2022-10-05T04:16:29.952Z,9.43
2022-10-05T04:19:40.762Z,9.70
2022-10-05T04:23:09.172Z,11.20
2022-10-05T04:26:14.768Z,15.68
2022-10-05T04:29:34.869Z,11.73
2022-10-05T04:32:37.907Z,11.57
2022-10-05T04:36:02.355Z,11.77
2022-10-05T04:39:19.169Z,11.95
2022-10-05T04:42:24.050Z,10.38
2022-10-05T04:45:25.687Z,10.57
2022-10-05T04:49:00.891Z,10.43
2022-10-05T04:52:36.430Z,10.55
2022-10-05T04:55:58.268Z,9.70
2022-10-05T04:59:18.583Z,10.88
2022-10-05T05:02:41.919Z,8.98
2022-10-05T05:06:12.453Z,8.77
2022-10-05T05:09:31.818Z,8.63
2022-10-05T05:12:48.687Z,8.68
2022-10-05T05:15:54.299Z,8.02
2022-10-05T05:19:26.422Z,8.13
2022-10-05T05:23:03.045Z,7.80
2022-10-05T05:26:07.665Z,7.40
2022-10-05T05:29:17.520Z,7.68
2022-10-05T05:32:21.919Z,7.78
2022-10-05T05:35:54.907Z,7.28
2022-10-05T05:39:53.897Z,6.77
2022-10-05T05:43:49.949Z,6.72
2022-10-05T05:47:10.138Z,7.07
2022-10-05T05:50:34.879Z,6.32
2022-10-05T05:53:47.633Z,7.32
2022-10-05T05:57:11.091Z,8.57
2022-10-05T06:00:26.792Z,6.97
2022-10-05T06:04:05.922Z,7.25
2022-10-05T06:07:07.488Z,6.85
2022-10-05T06:10:34.945Z,6.20
2022-10-05T06:13:39.101Z,5.97
2022-10-05T06:16:45.915Z,5.88
2022-10-05T06:19:47.937Z,6.47
2022-10-05T06:22:49.543Z,5.80
2022-10-05T06:25:57.070Z,5.82
2022-10-05T06:29:01.965Z,5.60
2022-10-05T06:32:13.703Z,5.20
2022-10-05T06:35:21.426Z,5.43
2022-10-05T06:38:57.312Z,5.43
2022-10-05T06:42:29.866Z,6.82
2022-10-05T06:46:10.330Z,5.90
2022-10-05T06:49:19.973Z,7.85
2022-10-05T06:52:36.008Z,9.77
2022-10-05T06:55:44.569Z,13.85
2022-10-05T06:59:06.866Z,16.67
2022-10-05T07:02:23.795Z,11.77
2022-10-05T07:05:44.096Z,10.35
2022-10-05T07:08:57.916Z,11.18
2022-10-05T07:12:29.871Z,8.35
2022-10-05T07:15:50.373Z,8.88
2022-10-05T07:19:16.121Z,9.67
2022-10-05T07:22:38.187Z,9.65
2022-10-05T07:25:57.518Z,9.13
2022-10-05T07:29:08.409Z,9.80
2022-10-05T07:32:28.451Z,9.90
2022-10-05T07:36:14.830Z,8.63
2022-10-05T07:39:42.080Z,8.90
2022-10-05T07:43:19.947Z,9.35
2022-10-05T07:46:53.876Z,9.23
2022-10-05T07:49:59.839Z,10.70
2022-10-05T07:53:05.488Z,11.23
2022-10-05T07:56:25.736Z,12.63
2022-10-05T07:59:31.931Z,12.35
2022-10-05T08:02:53.636Z,11.75
2022-10-05T08:05:55.222Z,11.90
2022-10-05T08:09:00.215Z,11.17
2022-10-05T08:12:24.438Z,11.13
2022-10-05T08:15:28.482Z,10.48
2022-10-05T08:18:41.361Z,10.15
2022-10-05T08:21:50.638Z,9.55
2022-10-05T08:25:00.376Z,9.73
2022-10-05T08:28:25.582Z,7.63
2022-10-05T08:31:33.771Z,5.15
2022-10-05T08:34:49.932Z,4.05
2022-10-05T08:37:51.681Z,4.53
2022-10-05T08:41:31.213Z,4.00
2022-10-05T08:44:55.104Z,7.72
2022-10-05T08:48:21.232Z,5.00
2022-10-05T08:51:41.199Z,5.10
2022-10-05T08:54:52.247Z,5.72
2022-10-05T08:58:11.966Z,3.83
2022-10-05T09:01:19.605Z,3.20
2022-10-05T09:04:42.505Z,5.53
2022-10-05T09:07:44.078Z,10.13
2022-10-05T09:11:09.115Z,8.70
2022-10-05T09:14:25.912Z,6.50
2022-10-05T09:17:38.509Z,5.10
2022-10-05T09:20:41.455Z,5.63
2022-10-05T09:23:43.751Z,6.68
2022-10-05T09:27:17.971Z,7.43
2022-10-05T09:30:30.440Z,6.17
2022-10-05T09:33:43.732Z,4.93
2022-10-05T09:36:48.529Z,4.55
2022-10-05T09:40:35.124Z,6.15
2022-10-05T09:43:40.299Z,4.70
2022-10-05T09:47:09.943Z,4.77
2022-10-05T09:50:52.017Z,5.15
2022-10-05T09:53:53.681Z,4.90
2022-10-05T09:57:23.082Z,3.83
2022-10-05T10:00:34.384Z,4.82
2022-10-05T10:03:51.304Z,3.90
2022-10-05T10:07:10.473Z,5.70
2022-10-05T10:10:33.912Z,4.20
2022-10-05T10:13:53.749Z,3.88
2022-10-05T10:17:18.298Z,3.50
2022-10-05T10:20:38.413Z,2.80
2022-10-05T10:24:03.892Z,2.78
2022-10-05T10:27:40.822Z,3.22
2022-10-05T10:31:06.335Z,4.65
2022-10-05T10:34:21.036Z,3.88
2022-10-05T10:37:42.363Z,3.23
2022-10-05T10:40:56.143Z,3.53
2022-10-05T10:44:03.980Z,5.60
2022-10-05T10:47:05.640Z,3.20
2022-10-05T10:50:25.863Z,3.75
2022-10-05T10:53:51.841Z,5.93
2022-10-05T10:57:13.877Z,4.10
2022-10-05T11:00:47.677Z,6.78
2022-10-05T11:04:11.103Z,4.20
2022-10-05T11:07:21.683Z,4.35
2022-10-05T11:10:58.905Z,5.77
2022-10-05T11:14:06.466Z,4.03
2022-10-05T11:17:36.113Z,2.90
2022-10-05T11:21:15.744Z,2.80
2022-10-05T11:24:29.646Z,4.28
2022-10-05T11:28:00.454Z,4.47
2022-10-05T11:31:23.947Z,4.30
2022-10-05T11:34:46.587Z,3.80
2022-10-05T11:38:09.579Z,3.67
2022-10-05T11:41:33.917Z,4.63
2022-10-05T11:44:55.612Z,3.40
2022-10-05T11:48:00.164Z,4.32
2022-10-05T11:51:27.892Z,4.60
2022-10-05T11:54:58.454Z,5.20
2022-10-05T11:58:00.910Z,5.93
2022-10-05T12:01:02.572Z,4.60
2022-10-05T12:04:07.032Z,5.60
2022-10-05T12:07:16.758Z,4.22
2022-10-05T12:10:32.664Z,3.40
2022-10-05T12:14:10.862Z,3.95
2022-10-05T12:17:40.738Z,2.77
2022-10-05T12:20:51.723Z,3.83
2022-10-05T12:24:04.992Z,4.45
2022-10-05T12:27:11.270Z,3.83
2022-10-05T12:30:28.895Z,3.85
2022-10-05T12:33:51.661Z,2.60
2022-10-05T12:37:06.233Z,3.08
2022-10-05T12:40:19.898Z,3.03
2022-10-05T12:43:26.604Z,2.78
2022-10-05T12:46:31.103Z,2.58
2022-10-05T12:49:41.464Z,2.73
2022-10-05T12:52:50.548Z,2.60
2022-10-05T12:56:05.169Z,2.33
2022-10-05T12:59:11.839Z,3.13
2022-10-05T13:02:35.476Z,2.65
2022-10-05T13:06:07.477Z,2.70
2022-10-05T13:09:19.227Z,2.70
2022-10-05T13:12:29.807Z,2.50
2022-10-05T13:15:41.057Z,2.22
2022-10-05T13:19:20.140Z,2.47
2022-10-05T13:22:31.029Z,2.70
2022-10-05T13:25:38.174Z,2.80
2022-10-05T13:28:58.123Z,2.58
2022-10-05T13:32:25.754Z,2.50
2022-10-05T13:35:43.728Z,2.47
2022-10-05T13:39:03.179Z,2.90
2022-10-05T13:42:09.529Z,2.60
2022-10-05T13:45:17.080Z,2.75
2022-10-05T13:48:46.618Z,2.97
2022-10-05T13:51:59.094Z,2.70
2022-10-05T13:55:27.141Z,2.93
2022-10-05T13:59:03.108Z,2.92
2022-10-05T14:02:31.390Z,2.80
2022-10-05T14:05:32.991Z,3.33
2022-10-05T14:08:35.959Z,3.75
2022-10-05T14:11:38.592Z,2.60
2022-10-05T14:15:00.433Z,2.60
2022-10-05T14:18:24.651Z,2.60
2022-10-05T14:21:29.100Z,2.50
2022-10-05T14:24:49.178Z,3.50
2022-10-05T14:28:12.092Z,4.07
2022-10-05T14:31:15.921Z,3.40
2022-10-05T14:34:37.099Z,4.10
2022-10-05T14:37:53.858Z,4.60
2022-10-05T14:41:18.083Z,3.50
2022-10-05T14:48:06.153Z,2.65
2022-10-05T14:51:15.537Z,3.00
2022-10-05T14:54:27.474Z,2.97
2022-10-05T14:58:08.032Z,3.33
2022-10-05T15:01:31.033Z,4.17
2022-10-05T15:04:37.822Z,4.25
2022-10-05T15:07:43.995Z,3.40
2022-10-05T15:10:56.596Z,3.30
2022-10-05T15:13:58.294Z,2.97
2022-10-05T15:17:23.603Z,3.03
2022-10-05T15:20:25.920Z,3.47
2022-10-05T15:23:34.482Z,3.75
2022-10-05T15:26:42.211Z,3.30
2022-10-05T15:29:52.248Z,3.35
2022-10-05T15:33:18.228Z,3.37
2022-10-05T15:36:24.067Z,3.42
2022-10-05T15:39:55.600Z,3.05
2022-10-05T15:43:03.068Z,3.25
2022-10-05T15:46:26.610Z,3.33
2022-10-05T15:49:37.420Z,2.70
2022-10-05T15:53:10.050Z,2.85
2022-10-05T15:56:20.772Z,2.90
2022-10-05T15:59:54.977Z,2.60
2022-10-05T16:03:23.507Z,3.17
2022-10-05T16:06:55.202Z,2.57
2022-10-05T16:09:56.750Z,2.70
2022-10-05T16:13:19.799Z,3.60
2022-10-05T16:16:25.184Z,3.70
2022-10-05T16:19:52.077Z,3.30
2022-10-05T16:23:22.814Z,3.60
2022-10-05T16:26:32.627Z,4.00
2022-10-05T16:30:10.268Z,3.50
2022-10-05T16:33:46.702Z,4.70
2022-10-05T16:36:48.653Z,4.07
2022-10-05T16:39:55.388Z,3.93
2022-10-05T16:43:05.892Z,4.68
2022-10-05T16:46:27.738Z,4.80
2022-10-05T16:49:39.992Z,4.68
2022-10-05T16:52:42.271Z,5.00
2022-10-05T16:55:47.009Z,4.20
2022-10-05T16:58:54.507Z,4.68
2022-10-05T17:02:03.187Z,4.57
2022-10-05T17:05:39.271Z,5.60
2022-10-05T17:09:05.657Z,5.45
2022-10-05T17:12:13.379Z,5.57
2022-10-05T17:15:24.458Z,5.22
2022-10-05T17:18:53.421Z,5.20
2022-10-05T17:22:00.630Z,4.63
2022-10-05T17:25:43.778Z,5.05
2022-10-05T17:28:51.350Z,4.60
2022-10-05T17:32:02.740Z,5.07
2022-10-05T17:35:18.183Z,5.00
2022-10-05T17:38:41.780Z,5.15
2022-10-05T17:41:43.508Z,5.40
2022-10-05T17:44:45.155Z,5.23
2022-10-05T17:48:05.587Z,4.97
2022-10-05T17:51:56.515Z,5.25
2022-10-05T17:55:20.083Z,4.38
2022-10-05T17:58:26.017Z,4.47
2022-10-05T18:01:32.063Z,4.50
2022-10-05T18:04:38.776Z,4.18
2022-10-05T18:07:41.218Z,4.80
2022-10-05T18:11:17.269Z,4.85
2022-10-05T18:14:24.725Z,4.53
2022-10-05T18:17:46.328Z,4.33
2022-10-05T18:21:17.800Z,4.40
2022-10-05T18:24:53.139Z,4.38
2022-10-05T18:28:18.009Z,4.68
2022-10-05T18:32:02.842Z,5.10
2022-10-05T18:35:11.345Z,5.23
2022-10-05T18:38:28.318Z,4.97
2022-10-05T18:41:40.295Z,4.82
2022-10-05T18:44:50.294Z,5.50
2022-10-05T18:47:58.463Z,6.00
2022-10-05T18:51:04.897Z,6.77
2022-10-05T18:54:18.929Z,7.00
2022-10-05T18:57:20.608Z,6.57
2022-10-05T19:00:25.607Z,5.80
2022-10-05T19:03:39.416Z,6.75
2022-10-05T19:07:19.646Z,4.73
2022-10-05T19:10:37.257Z,4.78
2022-10-05T19:13:51.167Z,5.15
2022-10-05T19:17:15.694Z,4.45
2022-10-05T19:20:39.987Z,4.70
2022-10-05T19:24:10.081Z,5.00
2022-10-05T19:27:32.834Z,4.70
2022-10-05T19:30:53.364Z,4.80
2022-10-05T19:34:16.618Z,4.93
2022-10-05T19:37:31.022Z,5.05
2022-10-05T19:40:56.912Z,4.83
2022-10-05T19:44:26.876Z,5.03
2022-10-05T19:47:40.282Z,4.68
2022-10-05T19:50:55.812Z,4.80
2022-10-05T19:54:02.439Z,5.57
2022-10-05T19:57:04.268Z,5.40
2022-10-05T20:00:06.434Z,5.30
2022-10-05T20:03:12.456Z,5.20
2022-10-05T20:06:14.089Z,4.90
2022-10-05T20:09:19.932Z,5.30
2022-10-05T20:12:24.264Z,4.87
2022-10-05T20:15:51.964Z,4.40
2022-10-05T20:19:12.149Z,4.78
2022-10-05T20:22:40.892Z,3.70
2022-10-05T20:25:42.499Z,4.45
2022-10-05T20:28:44.492Z,4.10
2022-10-05T20:31:46.597Z,4.47
2022-10-05T20:34:49.333Z,4.30
2022-10-05T20:37:55.051Z,4.40
2022-10-05T20:40:56.644Z,4.80
2022-10-05T20:43:58.230Z,4.17
2022-10-05T20:47:01.328Z,4.38
2022-10-05T20:50:08.519Z,4.70
2022-10-05T20:53:13.612Z,4.53
2022-10-05T20:56:15.195Z,4.10
2022-10-05T20:59:17.036Z,3.73
2022-10-05T21:02:19.586Z,4.78
2022-10-05T21:05:21.334Z,5.00
2022-10-05T21:08:22.994Z,4.75
2022-10-05T21:11:24.616Z,5.10
2022-10-05T21:14:30.516Z,5.27
2022-10-05T21:17:34.665Z,4.53
2022-10-05T21:20:36.244Z,4.68
2022-10-05T21:23:40.806Z,5.07
2022-10-05T21:26:42.730Z,4.93
2022-10-05T21:29:45.422Z,4.90
2022-10-05T21:32:47.043Z,5.90
2022-10-05T21:35:48.668Z,5.63
2022-10-05T21:38:53.983Z,6.03
2022-10-05T21:41:55.816Z,6.22
2022-10-05T21:44:57.382Z,6.10
2022-10-05T21:47:59.045Z,5.97
2022-10-05T21:51:00.701Z,6.03
2022-10-05T21:54:08.027Z,6.22
2022-10-05T21:57:10.507Z,6.15
2022-10-05T22:00:14.120Z,6.13
2022-10-05T22:03:15.773Z,5.82
2022-10-05T22:06:17.338Z,6.63
2022-10-05T22:09:18.902Z,5.68
2022-10-05T22:12:20.682Z,6.65
2022-10-05T22:15:22.240Z,6.57
2022-10-05T22:18:24.827Z,6.20
2022-10-05T22:21:26.654Z,5.93
2022-10-05T22:24:28.212Z,6.10
2022-10-05T22:27:30.664Z,6.10
2022-10-05T22:30:32.282Z,6.30
2022-10-05T22:33:34.034Z,6.60
2022-10-05T22:36:35.692Z,7.60
2022-10-05T22:39:37.229Z,7.07
2022-10-05T22:42:39.141Z,6.57
2022-10-05T22:45:40.785Z,10.33
2022-10-05T22:48:42.413Z,12.63
2022-10-05T22:51:44.015Z,9.82
2022-10-05T22:59:04.241Z,15.95
2022-10-05T23:02:05.885Z,15.43
2022-10-05T23:05:08.267Z,16.48
2022-10-05T23:08:09.920Z,17.55
2022-10-05T23:11:23.612Z,17.70
2022-10-05T23:14:25.220Z,19.42
2022-10-05T23:17:27.130Z,17.30
2022-10-05T23:20:28.845Z,16.13
2022-10-05T23:23:30.424Z,17.38
2022-10-05T23:26:32.138Z,18.92
2022-10-05T23:29:33.715Z,20.33
2022-10-05T23:32:42.113Z,18.50
2022-10-05T23:35:43.710Z,17.27
2022-10-05T23:38:45.449Z,18.40
2022-10-05T23:41:47.036Z,15.80
2022-10-05T23:44:48.591Z,13.82
2022-10-05T23:47:50.175Z,13.23
2022-10-05T23:50:51.792Z,22.73
2022-10-05T23:53:53.334Z,17.60
2022-10-05T23:56:54.948Z,11.48
2022-10-05T23:59:56.550Z,10.60
